Time;durP1;ratioP1;P1;durP2;ratioP2;P2;SDS_P1;SDS_P2;PMS_P1;PMS_P2;Temp;Humidity;BMP_temperature;BMP_pressure;BME280_temperature;BME280_humidity;BME280_pressure;Samples;Min_cycle;Max_cycle;Signal;HPM_P1;HPM_P2
2023/07/03 00:01:26;;;;;;;13.25;2.90;;;18.10;66.90;;;;;;4733321;30;20044;-83
2023/07/03 00:04:00;;;;;;;11.10;2.20;;;18.00;67.00;;;;;;4745981;30;20544;-83
2023/07/03 00:07:23;;;;;;;7.88;1.85;;;17.90;67.00;;;;;;4768107;30;20067;-83
2023/07/03 00:10:33;;;;;;;9.32;1.98;;;17.90;67.00;;;;;;4769003;30;20051;-83
2023/07/03 00:16:40;;;;;;;8.75;1.73;;;17.90;67.00;;;;;;4791362;29;20055;-83
2023/07/03 00:19:26;;;;;;;6.30;1.52;;;17.90;67.10;;;;;;4803467;29;20375;-83
2023/07/03 00:22:09;;;;;;;7.93;1.30;;;17.90;67.00;;;;;;4815806;29;20061;-82
2023/07/03 00:24:46;;;;;;;6.50;1.15;;;17.90;66.90;;;;;;4808224;29;20095;-83
2023/07/03 00:30:19;;;;;;;7.97;1.85;;;17.90;66.90;;;;;;4802948;29;20500;-83
2023/07/03 00:32:51;;;;;;;;;;;17.80;66.90;;;;;;4793307;29;20149;-83
2023/07/03 00:35:20;;;;;;;8.70;1.70;;;17.70;66.90;;;;;;4807246;29;19935;-83
2023/07/03 00:37:49;;;;;;;5.20;1.35;;;17.70;66.90;;;;;;4793025;29;20411;-83
2023/07/03 00:40:16;;;;;;;7.82;1.45;;;17.70;66.80;;;;;;4804105;29;20051;-83
2023/07/03 00:42:53;;;;;;;4.50;1.20;;;17.70;66.70;;;;;;4795111;29;20414;-83
2023/07/03 00:45:22;;;;;;;6.82;1.45;;;17.70;66.60;;;;;;4789164;29;20051;-83
2023/07/03 00:47:53;;;;;;;4.93;1.30;;;17.70;66.60;;;;;;4810000;29;20122;-83
2023/07/03 00:50:28;;;;;;;5.65;1.63;;;17.70;66.80;;;;;;4822396;29;20070;-83
2023/07/03 00:53:04;;;;;;;4.68;1.23;;;17.70;66.80;;;;;;4807842;29;20054;-83
2023/07/03 00:55:36;;;;;;;;;;;17.70;66.80;;;;;;4807882;29;20059;-83
2023/07/03 00:58:14;;;;;;;4.88;1.30;;;17.70;66.90;;;;;;4812453;29;19991;-82
2023/07/03 01:01:01;;;;;;;5.38;1.00;;;17.60;66.80;;;;;;4876757;29;20355;-83
2023/07/03 01:03:43;;;;;;;5.57;1.45;;;17.70;66.80;;;;;;4886908;29;20504;-83
2023/07/03 01:06:29;;;;;;;7.85;1.50;;;17.60;66.80;;;;;;4883916;29;20044;-83
2023/07/03 01:09:04;;;;;;;5.82;1.55;;;17.60;66.80;;;;;;4884375;29;20049;-84
2023/07/03 01:11:36;;;;;;;7.33;1.50;;;17.50;66.90;;;;;;4875245;29;20461;-84
2023/07/03 01:14:06;;;;;;;6.32;0.98;;;17.50;66.90;;;;;;4862766;29;20144;-84
2023/07/03 01:16:38;;;;;;;6.15;0.93;;;17.50;66.90;;;;;;4864755;29;20049;-85
2023/07/03 01:19:13;;;;;;;5.10;1.45;;;17.50;66.80;;;;;;4895678;29;20058;-85
2023/07/03 01:21:52;;;;;;;6.60;1.10;;;17.50;66.80;;;;;;4878511;29;20044;-84
2023/07/03 01:24:42;;;;;;;4.60;1.10;;;17.50;66.80;;;;;;4863046;29;20049;-84
2023/07/03 01:27:16;;;;;;;5.53;0.98;;;17.50;66.70;;;;;;4871739;29;20059;-83
2023/07/03 01:29:51;;;;;;;4.70;0.90;;;17.50;66.70;;;;;;4876040;29;20116;-83
2023/07/03 01:32:27;;;;;;;4.50;1.00;;;17.40;66.70;;;;;;4876353;29;20055;-83
2023/07/03 01:34:56;;;;;;;6.63;1.52;;;17.40;66.70;;;;;;4841738;29;20386;-82
2023/07/03 01:37:27;;;;;;;7.90;1.52;;;17.40;66.80;;;;;;4828835;29;20080;-83
2023/07/03 01:39:58;;;;;;;6.88;1.30;;;17.30;66.80;;;;;;4838815;29;20075;-83
2023/07/03 01:42:28;;;;;;;6.93;1.48;;;17.30;66.90;;;;;;4861063;29;20060;-81
2023/07/03 01:45:05;;;;;;;6.10;1.30;;;17.30;66.90;;;;;;4844305;29;20055;-83
2023/07/03 01:47:37;;;;;;;8.30;1.55;;;17.20;67.00;;;;;;4841549;29;20056;-82
2023/07/03 01:50:18;;;;;;;6.72;1.65;;;17.10;67.10;;;;;;4828894;29;20056;-82
2023/07/03 01:53:01;;;;;;;8.13;1.60;;;17.10;67.20;;;;;;4834001;29;20054;-82
2023/07/03 01:55:54;;;;;;;7.15;1.60;;;17.00;67.40;;;;;;4861745;29;20421;-83
2023/07/03 01:58:36;;;;;;;9.63;1.40;;;17.00;67.40;;;;;;4856019;29;20498;-82
2023/07/03 02:01:07;;;;;;;4.28;0.70;;;17.00;67.40;;;;;;4852648;29;20049;-82
2023/07/03 02:03:43;;;;;;;7.75;1.27;;;17.00;67.50;;;;;;4850276;29;20050;-83
2023/07/03 02:06:20;;;;;;;7.05;1.40;;;17.00;67.50;;;;;;4844009;29;20062;-82
2023/07/03 02:08:51;;;;;;;3.45;0.68;;;17.00;67.50;;;;;;4855556;29;20379;-82
2023/07/03 02:11:22;;;;;;;5.57;1.10;;;17.00;67.50;;;;;;4859867;29;20140;-81
2023/07/03 02:13:55;;;;;;;5.63;0.88;;;17.00;67.50;;;;;;4838047;29;20053;-82
2023/07/03 02:16:29;;;;;;;2.83;0.85;;;17.00;67.50;;;;;;4845679;29;20049;-82
2023/07/03 02:19:00;;;;;;;5.85;1.42;;;17.00;67.50;;;;;;4853319;29;20064;-82
2023/07/03 02:21:28;;;;;;;5.55;0.80;;;17.00;67.50;;;;;;4843512;29;20053;-82
2023/07/03 02:23:56;;;;;;;3.45;0.90;;;17.00;67.60;;;;;;4861571;29;20041;-83
2023/07/03 02:26:23;;;;;;;5.03;0.90;;;17.00;67.60;;;;;;4851245;29;20045;-83
2023/07/03 02:28:51;;;;;;;3.80;1.50;;;17.00;67.70;;;;;;4855351;29;20085;-84
2023/07/03 02:31:18;;;;;;;4.32;0.88;;;17.00;67.70;;;;;;4835327;29;20078;-83
2023/07/03 02:33:46;;;;;;;7.25;1.13;;;17.00;67.70;;;;;;4841681;29;20084;-83
2023/07/03 02:36:13;;;;;;;5.75;1.65;;;17.00;67.80;;;;;;4892741;29;20358;-83
2023/07/03 02:38:42;;;;;;;9.40;1.20;;;17.00;67.90;;;;;;4882008;29;20577;-82
2023/07/03 02:41:10;;;;;;;4.93;1.23;;;16.90;67.90;;;;;;4862331;29;20470;-83
2023/07/03 02:43:40;;;;;;;8.65;1.30;;;17.00;67.90;;;;;;4877330;29;20076;-83
2023/07/03 02:46:09;;;;;;;4.63;1.00;;;16.90;68.10;;;;;;4854052;29;20069;-83
2023/07/03 02:48:39;;;;;;;7.45;1.55;;;16.90;68.10;;;;;;4871490;29;20048;-83
2023/07/03 02:51:41;;;;;;;6.05;1.20;;;16.90;68.50;;;;;;4864748;29;20058;-83
2023/07/03 02:54:23;;;;;;;9.65;2.28;;;16.90;68.40;;;;;;4863569;29;20520;-82
2023/07/03 02:56:55;;;;;;;9.35;1.60;;;16.80;69.10;;;;;;4874617;29;20056;-83
2023/07/03 02:59:23;;;;;;;7.72;2.05;;;16.70;69.20;;;;;;4883011;29;20131;-83
2023/07/03 03:01:51;;;;;;;8.57;1.65;;;16.70;69.40;;;;;;4874255;29;20041;-83
2023/07/03 03:04:29;;;;;;;4.60;1.23;;;16.70;69.40;;;;;;4867004;29;20451;-83
2023/07/03 03:07:32;;;;;;;8.48;1.23;;;16.70;69.40;;;;;;4886353;29;20067;-83
2023/07/03 03:10:05;;;;;;;7.30;1.30;;;16.70;69.60;;;;;;4886594;29;20076;-83
2023/07/03 03:12:33;;;;;;;6.57;1.40;;;16.70;69.60;;;;;;4883829;29;20059;-84
2023/07/03 03:15:05;;;;;;;5.97;1.55;;;16.70;69.70;;;;;;4878790;29;20120;-84
2023/07/03 03:18:02;;;;;;;7.47;1.85;;;16.70;69.60;;;;;;4840673;29;20545;-83
2023/07/03 03:20:50;;;;;;;6.88;1.60;;;16.80;69.70;;;;;;4844363;29;20052;-83
2023/07/03 03:23:21;;;;;;;6.82;1.27;;;16.70;69.70;;;;;;4862407;29;20490;-84
2023/07/03 03:25:48;;;;;;;8.25;1.83;;;16.80;69.90;;;;;;4861071;29;20053;-83
2023/07/03 03:28:17;;;;;;;6.32;1.10;;;16.80;69.90;;;;;;4840488;29;20037;-83
2023/07/03 03:30:49;;;;;;;9.05;1.73;;;16.80;70.10;;;;;;4850931;29;20121;-85
2023/07/03 03:33:21;;;;;;;9.70;1.60;;;16.80;70.30;;;;;;4844928;29;20061;-82
2023/07/03 03:35:51;;;;;;;13.18;2.17;;;16.70;70.90;;;;;;4829797;29;20057;-83
2023/07/03 03:38:18;;;;;;;8.73;1.85;;;16.60;71.80;;;;;;4861571;29;20046;-83
2023/07/03 03:40:56;;;;;;;8.93;1.90;;;16.40;72.00;;;;;;4847288;29;20045;-83
2023/07/03 03:43:29;;;;;;;11.85;1.90;;;16.40;72.20;;;;;;4840896;29;20055;-82
2023/07/03 03:46:01;;;;;;;7.07;1.75;;;16.30;74.00;;;;;;4833153;29;20433;-82
2023/07/03 03:48:33;;;;;;;7.78;1.40;;;16.30;73.20;;;;;;4844711;29;20134;-83
2023/07/03 03:51:02;;;;;;;7.18;1.50;;;16.30;73.10;;;;;;4847329;29;20049;-83
2023/07/03 03:53:31;;;;;;;9.05;1.45;;;16.30;73.20;;;;;;4844889;29;20088;-83
2023/07/03 03:55:59;;;;;;;10.50;1.90;;;16.40;73.40;;;;;;4849648;29;20048;-83
2023/07/03 03:58:28;;;;;;;7.97;2.03;;;16.40;74.40;;;;;;4868007;29;20511;-83
2023/07/03 04:00:55;;;;;;;10.45;1.77;;;16.40;73.60;;;;;;4873646;29;20045;-83
2023/07/03 04:03:23;;;;;;;11.40;2.72;;;16.40;73.90;;;;;;4894011;29;20472;-83
2023/07/03 04:05:52;;;;;;;10.48;2.25;;;16.50;74.60;;;;;;4877546;29;20040;-82
2023/07/03 04:08:23;;;;;;;9.43;2.10;;;16.50;74.50;;;;;;4885456;29;20128;-84
2023/07/03 04:10:50;;;;;;;14.23;2.75;;;16.50;75.20;;;;;;4869829;29;20136;-84
2023/07/03 04:13:20;;;;;;;13.55;3.35;;;16.50;75.40;;;;;;4884086;29;20049;-83
2023/07/03 04:15:54;;;;;;;10.68;2.63;;;16.50;75.60;;;;;;4873084;29;20524;-84
2023/07/03 04:18:30;;;;;;;12.00;2.60;;;16.50;75.30;;;;;;4874736;29;20063;-84
2023/07/03 04:20:59;;;;;;;14.45;3.42;;;16.50;75.30;;;;;;4876072;29;20064;-83
2023/07/03 04:23:30;;;;;;;14.55;3.17;;;16.50;76.00;;;;;;4864435;29;20076;-84
2023/07/03 04:25:57;;;;;;;17.10;3.03;;;16.50;76.00;;;;;;4880439;29;20405;-84
2023/07/03 04:28:27;;;;;;;14.00;2.85;;;16.50;76.20;;;;;;4867547;29;20100;-84
2023/07/03 04:30:57;;;;;;;10.48;2.20;;;16.40;76.30;;;;;;4893609;29;20056;-84
2023/07/03 04:33:25;;;;;;;6.93;1.30;;;16.40;76.10;;;;;;4849081;29;20056;-83
2023/07/03 04:35:55;;;;;;;6.53;1.50;;;16.40;76.00;;;;;;4857559;29;20131;-83
2023/07/03 04:38:23;;;;;;;11.68;1.98;;;16.50;76.00;;;;;;4875028;29;20231;-83
2023/07/03 04:40:53;;;;;;;8.52;1.85;;;16.50;76.00;;;;;;4842595;29;20060;-83
2023/07/03 04:43:21;;;;;;;11.98;2.47;;;16.50;76.10;;;;;;4874546;29;20149;-83
2023/07/03 04:46:03;;;;;;;15.07;3.95;;;16.60;76.10;;;;;;4894875;29;20131;-83
2023/07/03 04:48:31;;;;;;;;;;;16.60;76.30;;;;;;4887143;29;20406;-85
2023/07/03 04:50:58;;;;;;;11.27;2.42;;;16.60;76.60;;;;;;4866929;29;19955;-83
2023/07/03 04:53:31;;;;;;;9.68;1.90;;;16.50;76.40;;;;;;4843030;29;20143;-83
2023/07/03 04:56:10;;;;;;;10.23;2.45;;;16.60;76.60;;;;;;4847484;29;20072;-83
2023/07/03 04:58:39;;;;;;;14.57;2.72;;;16.60;76.80;;;;;;4878223;29;20080;-84
2023/07/03 05:01:11;;;;;;;11.90;2.60;;;16.50;77.00;;;;;;4892398;29;20102;-84
2023/07/03 05:03:44;;;;;;;11.48;2.17;;;16.50;76.90;;;;;;4863440;29;20049;-83
2023/07/03 05:06:24;;;;;;;9.98;2.53;;;16.50;77.00;;;;;;4860870;29;20057;-84
2023/07/03 05:08:55;;;;;;;9.70;2.28;;;16.50;76.90;;;;;;4859852;29;20093;-84
2023/07/03 05:11:23;;;;;;;11.15;2.25;;;16.50;77.00;;;;;;4883955;29;20044;-84
2023/07/03 05:13:53;;;;;;;13.90;3.63;;;16.50;77.30;;;;;;4888296;29;20044;-84
2023/07/03 05:16:27;;;;;;;13.68;3.13;;;16.50;77.70;;;;;;4879309;29;20148;-84
2023/07/03 05:18:54;;;;;;;11.18;3.17;;;16.50;77.80;;;;;;4862737;29;20433;-83
2023/07/03 05:21:22;;;;;;;10.32;2.40;;;16.50;77.80;;;;;;4863023;29;20068;-84
2023/07/03 05:23:49;;;;;;;16.48;2.58;;;16.50;77.70;;;;;;4865258;29;20465;-84
2023/07/03 05:26:16;;;;;;;8.30;2.17;;;16.60;77.60;;;;;;4849777;29;20068;-83
2023/07/03 05:28:43;;;;;;;10.40;2.33;;;16.60;77.30;;;;;;4868869;29;20044;-83
2023/07/03 05:31:11;;;;;;;7.20;2.17;;;16.70;77.30;;;;;;4853656;29;20060;-83
2023/07/03 05:33:41;;;;;;;12.98;3.47;;;16.70;77.30;;;;;;4876670;29;20206;-84
2023/07/03 05:36:08;;;;;;;12.45;3.17;;;16.70;77.70;;;;;;4893461;29;20060;-83
2023/07/03 05:38:35;;;;;;;7.85;2.22;;;16.70;77.70;;;;;;4861958;29;20056;-84
2023/07/03 05:41:03;;;;;;;8.15;1.63;;;16.70;77.60;;;;;;4864531;29;20410;-84
2023/07/03 05:43:30;;;;;;;11.82;3.15;;;16.70;77.40;;;;;;4876619;29;20045;-84
2023/07/03 05:45:58;;;;;;;12.05;2.80;;;16.80;78.00;;;;;;4847064;29;20072;-83
2023/07/03 05:48:26;;;;;;;9.68;2.80;;;16.80;77.80;;;;;;4862634;29;20145;-84
2023/07/03 05:50:54;;;;;;;6.88;1.77;;;16.80;77.90;;;;;;4877772;29;20086;-84
2023/07/03 05:53:21;;;;;;;14.20;3.55;;;16.80;77.70;;;;;;4886769;29;20049;-84
2023/07/03 05:55:56;;;;;;;13.73;3.50;;;16.90;78.00;;;;;;4868669;29;20060;-83
2023/07/03 05:58:23;;;;;;;7.50;1.80;;;16.90;77.70;;;;;;4881156;29;20064;-83
2023/07/03 06:00:51;;;;;;;9.35;2.33;;;17.00;77.40;;;;;;4852596;29;20049;-83
2023/07/03 06:03:19;;;;;;;14.40;2.70;;;17.20;77.30;;;;;;4877735;29;20048;-82
2023/07/03 06:05:48;;;;;;;7.38;1.58;;;17.30;77.10;;;;;;4881110;29;20105;-81
2023/07/03 06:08:21;;;;;;;10.23;2.75;;;17.40;76.80;;;;;;4888623;29;20053;-84
2023/07/03 06:10:49;;;;;;;11.48;2.65;;;17.50;76.50;;;;;;4894744;29;20036;-84
2023/07/03 06:13:16;;;;;;;9.18;2.35;;;17.60;76.40;;;;;;4878442;29;20053;-83
2023/07/03 06:15:43;;;;;;;4.85;1.55;;;17.70;76.10;;;;;;4892374;29;20128;-84
2023/07/03 06:18:14;;;;;;;8.48;2.03;;;17.80;75.80;;;;;;4884262;29;20438;-84
2023/07/03 06:20:42;;;;;;;9.10;1.63;;;17.90;75.60;;;;;;4873765;29;20049;-84
2023/07/03 06:23:25;;;;;;;8.20;2.00;;;18.00;75.40;;;;;;4894068;29;20075;-84
2023/07/03 06:26:11;;;;;;;7.15;1.88;;;18.10;75.30;;;;;;4885499;29;20041;-84
2023/07/03 06:29:02;;;;;;;7.25;2.40;;;18.00;75.40;;;;;;4884705;29;20170;-84
2023/07/03 06:31:47;;;;;;;14.85;3.72;;;17.90;75.60;;;;;;4886549;29;20057;-84
2023/07/03 06:34:15;;;;;;;12.00;2.80;;;17.70;75.80;;;;;;4844866;29;20068;-83
2023/07/03 06:36:59;;;;;;;19.85;3.60;;;17.60;76.20;;;;;;4843054;29;20053;-83
2023/07/03 06:39:27;;;;;;;11.32;2.70;;;17.50;76.50;;;;;;4842213;29;20072;-83
2023/07/03 06:42:01;;;;;;;11.18;2.65;;;17.40;76.70;;;;;;4830646;29;20052;-83
2023/07/03 06:44:43;;;;;;;8.57;1.98;;;17.40;76.50;;;;;;4814093;29;20145;-83
2023/07/03 06:47:16;;;;;;;10.45;2.88;;;17.50;76.40;;;;;;4838140;29;20535;-84
2023/07/03 06:49:46;;;;;;;10.25;1.85;;;17.60;76.20;;;;;;4831731;29;20141;-85
2023/07/03 06:52:25;;;;;;;9.35;2.72;;;17.60;76.20;;;;;;4810716;29;20141;-84
2023/07/03 06:54:58;;;;;;;13.93;2.47;;;17.60;76.00;;;;;;4838863;29;20054;-84
2023/07/03 06:57:28;;;;;;;9.25;2.25;;;17.60;76.10;;;;;;4814111;29;20091;-84
2023/07/03 06:59:56;;;;;;;9.70;2.25;;;17.60;76.00;;;;;;4841345;29;20166;-84
2023/07/03 07:02:23;;;;;;;8.45;1.48;;;17.70;75.90;;;;;;4812018;29;20053;-84
2023/07/03 07:05:11;;;;;;;8.50;1.92;;;17.80;75.70;;;;;;4848528;29;20049;-84
2023/07/03 07:07:51;;;;;;;8.98;1.48;;;17.90;75.20;;;;;;4840010;29;20405;-83
2023/07/03 07:10:18;;;;;;;6.35;1.77;;;18.10;75.00;;;;;;4856188;29;20053;-83
2023/07/03 07:12:46;;;;;;;7.47;1.63;;;18.10;74.80;;;;;;4865790;29;20481;-83
2023/07/03 07:15:22;;;;;;;9.27;2.20;;;18.30;75.30;;;;;;4841749;29;20060;-84
2023/07/03 07:17:50;;;;;;;11.48;2.78;;;18.30;74.50;;;;;;4868595;29;20151;-85
2023/07/03 07:20:18;;;;;;;10.27;2.65;;;18.20;74.50;;;;;;4857720;29;20117;-84
2023/07/03 07:22:49;;;;;;;8.63;2.05;;;18.20;74.70;;;;;;4844020;29;20049;-84
2023/07/03 07:25:17;;;;;;;11.98;2.83;;;18.20;74.70;;;;;;4842898;29;20079;-84
2023/07/03 07:27:45;;;;;;;8.98;2.13;;;18.10;74.50;;;;;;4869079;29;20045;-84
2023/07/03 07:30:12;;;;;;;8.38;1.92;;;18.10;74.50;;;;;;4850851;29;20128;-83
2023/07/03 07:32:40;;;;;;;8.30;2.28;;;18.20;74.30;;;;;;4854158;29;20072;-83
2023/07/03 07:35:10;;;;;;;8.65;1.90;;;18.20;74.10;;;;;;4866163;29;20057;-84
2023/07/03 07:37:37;;;;;;;10.75;2.55;;;18.30;74.10;;;;;;4863422;29;20150;-83
2023/07/03 07:40:06;;;;;;;10.32;2.20;;;18.30;73.90;;;;;;4867872;29;20143;-83
2023/07/03 07:42:34;;;;;;;10.13;1.63;;;18.30;73.80;;;;;;4881417;29;20481;-83
2023/07/03 07:45:02;;;;;;;10.25;2.08;;;18.30;73.90;;;;;;4882637;29;20476;-84
2023/07/03 07:47:30;;;;;;;9.75;2.75;;;18.30;73.90;;;;;;4897909;29;20053;-84
2023/07/03 07:49:58;;;;;;;8.88;2.63;;;18.30;73.90;;;;;;4895760;29;20117;-84
2023/07/03 07:52:26;;;;;;;5.22;1.77;;;18.30;73.90;;;;;;4870106;29;20048;-88
2023/07/03 07:54:57;;;;;;;9.98;2.22;;;18.40;73.90;;;;;;4888716;29;20528;-87
2023/07/03 07:57:29;;;;;;;7.85;1.90;;;18.50;73.60;;;;;;4872956;29;20091;-87
2023/07/03 08:00:02;;;;;;;6.97;1.60;;;18.70;73.30;;;;;;4880057;29;20049;-84
2023/07/03 08:03:15;;;;;;;8.68;1.60;;;18.90;73.60;;;;;;4892519;29;20070;-84
2023/07/03 08:05:42;;;;;;;7.32;1.58;;;19.20;72.30;;;;;;4892139;29;20040;-83
2023/07/03 08:08:09;;;;;;;10.20;2.00;;;19.50;71.70;;;;;;4879306;29;20044;-81
2023/07/03 08:10:36;;;;;;;7.88;1.98;;;19.50;71.20;;;;;;4874542;29;20062;-88
2023/07/03 08:13:06;;;;;;;6.82;1.83;;;19.40;71.40;;;;;;4869863;29;20056;-88
2023/07/03 08:15:46;;;;;;;11.00;2.40;;;19.40;71.70;;;;;;4873292;29;20061;-85
2023/07/03 08:18:15;;;;;;;8.65;2.10;;;19.40;71.50;;;;;;4891734;29;20516;-81
2023/07/03 08:20:43;;;;;;;8.50;2.08;;;19.40;71.50;;;;;;4863474;29;20394;-83
2023/07/03 08:23:12;;;;;;;12.38;1.95;;;19.60;71.10;;;;;;4882729;29;20490;-83
2023/07/03 08:25:40;;;;;;;10.15;1.95;;;20.00;70.50;;;;;;4878508;29;20068;-82
2023/07/03 08:28:09;;;;;;;9.27;2.08;;;20.40;69.40;;;;;;4864515;29;20049;-84
2023/07/03 08:31:03;;;;;;;10.68;1.95;;;20.40;68.20;;;;;;4893525;29;20060;-84
2023/07/03 08:34:29;;;;;;;8.55;1.80;;;20.30;68.40;;;;;;4882449;29;20339;-82
2023/07/03 08:36:56;;;;;;;6.38;1.83;;;20.20;67.80;;;;;;4849623;29;20067;-81
2023/07/03 08:39:26;;;;;;;7.30;1.00;;;20.00;68.40;;;;;;4852771;29;20052;-81
2023/07/03 08:42:02;;;;;;;5.60;1.27;;;20.00;68.50;;;;;;4841962;29;20067;-82
2023/07/03 08:44:30;;;;;;;7.70;1.25;;;20.20;68.30;;;;;;4845461;29;20048;-86
2023/07/03 08:47:00;;;;;;;8.65;1.15;;;20.20;67.80;;;;;;4844208;29;20136;-86
2023/07/03 08:49:39;;;;;;;5.57;1.25;;;20.20;67.90;;;;;;4832863;29;20133;-83
2023/07/03 08:52:10;;;;;;;5.65;1.33;;;20.50;67.10;;;;;;4844481;29;20471;-82
2023/07/03 08:54:43;;;;;;;9.98;1.77;;;20.70;66.60;;;;;;4860614;29;20044;-82
2023/07/03 08:57:11;;;;;;;10.35;1.63;;;21.00;65.20;;;;;;4844386;29;20491;-86
2023/07/03 08:59:42;;;;;;;7.53;2.53;;;20.90;63.90;;;;;;4829905;29;20057;-87
2023/07/03 09:02:46;;;;;;;7.47;1.63;;;20.70;63.50;;;;;;4847912;29;20147;-85
2023/07/03 09:05:15;;;;;;;8.38;1.20;;;20.20;63.80;;;;;;4862681;29;20057;-82
2023/07/03 09:07:53;;;;;;;5.68;1.00;;;19.90;64.90;;;;;;4862411;29;20041;-81
2023/07/03 09:10:31;;;;;;;4.25;0.93;;;19.80;65.40;;;;;;4854074;29;20053;-81
2023/07/03 09:12:58;;;;;;;6.80;1.02;;;19.80;64.80;;;;;;4859366;29;20057;-81
2023/07/03 09:15:51;;;;;;;6.88;1.00;;;19.90;64.30;;;;;;4829042;29;20477;-82
2023/07/03 09:18:24;;;;;;;6.20;1.30;;;20.00;64.00;;;;;;4844523;29;20073;-82
2023/07/03 09:20:52;;;;;;;4.32;1.10;;;20.20;63.80;;;;;;4840042;29;20060;-82
2023/07/03 09:23:42;;;;;;;9.35;2.13;;;20.50;63.60;;;;;;4847264;29;20055;-85
2023/07/03 09:26:21;;;;;;;7.93;1.58;;;20.70;62.80;;;;;;4848082;29;20049;-85
2023/07/03 09:28:57;;;;;;;8.05;1.48;;;20.80;62.60;;;;;;4881707;29;20041;-82
2023/07/03 09:31:26;;;;;;;8.32;1.58;;;21.10;62.00;;;;;;4859300;29;20060;-82
2023/07/03 09:33:54;;;;;;;8.15;1.42;;;20.90;60.70;;;;;;4841770;29;20514;-83
2023/07/03 09:36:24;;;;;;;4.80;1.20;;;20.70;61.50;;;;;;4867942;29;20061;-82
2023/07/03 09:38:51;;;;;;;5.60;1.30;;;20.40;62.00;;;;;;4866294;29;20412;-81
2023/07/03 09:41:30;;;;;;;3.83;1.08;;;20.20;62.70;;;;;;4870559;29;20032;-84
2023/07/03 09:43:57;;;;;;;6.25;1.33;;;20.00;63.20;;;;;;4888450;29;20041;-81
2023/07/03 09:46:28;;;;;;;8.10;1.58;;;19.70;63.70;;;;;;4878120;29;20143;-83
2023/07/03 09:48:56;;;;;;;6.75;1.40;;;19.60;63.80;;;;;;4885131;29;20072;-82
2023/07/03 09:51:27;;;;;;;6.20;1.33;;;19.40;64.00;;;;;;4892121;29;20052;-81
2023/07/03 09:54:26;;;;;;;6.85;1.20;;;19.30;64.30;;;;;;4876843;29;20049;-86
2023/07/03 09:57:32;;;;;;;5.85;1.40;;;19.30;64.10;;;;;;4869768;29;20057;-84
2023/07/03 10:00:20;;;;;;;8.20;1.15;;;19.70;63.40;;;;;;4867189;29;20526;-85
2023/07/03 10:02:54;;;;;;;5.07;1.30;;;20.10;62.80;;;;;;4894707;29;20052;-82
2023/07/03 10:05:32;;;;;;;11.23;2.45;;;20.50;62.00;;;;;;4896019;29;20412;-86
2023/07/03 10:08:06;;;;;;;10.60;2.40;;;20.70;61.20;;;;;;4881232;29;20045;-85
2023/07/03 10:10:36;;;;;;;11.93;2.30;;;20.50;60.90;;;;;;4870059;29;20085;-86
2023/07/03 10:13:19;;;;;;;6.85;1.50;;;20.30;61.60;;;;;;4846853;29;20053;-85
2023/07/03 10:15:47;;;;;;;6.50;1.63;;;20.20;62.00;;;;;;4885674;29;20120;-83
2023/07/03 10:18:23;;;;;;;6.43;1.58;;;20.00;62.00;;;;;;4851577;29;20517;-85
2023/07/03 10:20:51;;;;;;;6.38;1.23;;;19.70;63.30;;;;;;4896618;29;20053;-84
2023/07/03 10:23:28;;;;;;;7.35;1.55;;;18.80;66.10;;;;;;4880724;29;20048;-85
2023/07/03 10:26:05;;;;;;;6.10;1.35;;;18.10;69.30;;;;;;4864631;29;20075;-83
2023/07/03 10:28:45;;;;;;;6.28;1.23;;;17.70;70.40;;;;;;4869859;29;20060;-81
2023/07/03 10:31:21;;;;;;;10.38;1.52;;;17.60;70.80;;;;;;4889786;29;20405;-83
2023/07/03 10:33:50;;;;;;;5.05;1.10;;;17.60;70.70;;;;;;4880366;29;20056;-82
2023/07/03 10:36:24;;;;;;;9.38;1.30;;;17.70;70.10;;;;;;4861752;29;20057;-83
2023/07/03 10:38:58;;;;;;;5.90;0.93;;;18.00;69.40;;;;;;4881820;29;20386;-83
2023/07/03 10:41:46;;;;;;;6.75;1.23;;;18.30;68.00;;;;;;4871211;29;20069;-83
2023/07/03 10:44:24;;;;;;;5.60;1.08;;;18.70;66.40;;;;;;4878851;29;20057;-82
2023/07/03 10:47:11;;;;;;;6.60;1.15;;;18.80;65.50;;;;;;4875049;29;20054;-88
2023/07/03 10:49:39;;;;;;;3.92;1.10;;;18.90;64.80;;;;;;4882690;29;20101;-85
2023/07/03 10:52:21;;;;;;;8.18;1.20;;;18.80;63.90;;;;;;4892883;29;20048;-83
2023/07/03 10:55:31;;;;;;;5.65;1.17;;;18.70;63.80;;;;;;4889788;29;20516;-82
2023/07/03 10:58:05;;;;;;;6.28;0.90;;;18.70;64.00;;;;;;4877062;29;20085;-82
2023/07/03 11:01:13;;;;;;;5.03;0.90;;;18.70;64.10;;;;;;4892045;29;20139;-82
2023/07/03 11:04:12;;;;;;;6.75;0.93;;;18.70;64.10;;;;;;4844081;29;20143;-82
2023/07/03 11:07:03;;;;;;;3.42;0.70;;;18.80;63.70;;;;;;4865073;29;20139;-85
2023/07/03 11:09:30;;;;;;;4.88;1.08;;;18.90;63.30;;;;;;4868130;29;20105;-84
2023/07/03 11:15:31;;;;;;;3.70;0.90;;;19.20;62.40;;;;;;4884443;29;20508;-87
2023/07/03 11:18:36;;;;;;;6.03;1.02;;;19.20;62.00;;;;;;4868378;29;20128;-85
2023/07/03 11:21:12;;;;;;;5.90;1.40;;;19.20;61.20;;;;;;4892873;29;20036;-87
2023/07/03 11:24:01;;;;;;;7.20;1.23;;;19.20;61.00;;;;;;4875671;29;20045;-82
2023/07/03 11:26:39;;;;;;;9.15;1.65;;;19.20;60.90;;;;;;4866568;29;20060;-81
2023/07/03 11:29:11;;;;;;;6.70;1.30;;;19.20;60.70;;;;;;4890595;29;20036;-82
2023/07/03 11:31:43;;;;;;;7.72;1.45;;;19.20;60.50;;;;;;4886197;29;20085;-85
2023/07/03 11:34:18;;;;;;;9.60;1.33;;;19.30;59.60;;;;;;4873589;29;20077;-85
2023/07/03 11:36:54;;;;;;;5.35;0.82;;;19.40;59.20;;;;;;4876571;29;20044;-83
2023/07/03 11:39:33;;;;;;;5.18;1.15;;;19.50;59.10;;;;;;4895091;29;20485;-83
2023/07/03 11:42:10;;;;;;;4.38;0.93;;;19.70;57.90;;;;;;4876450;29;20048;-81
2023/07/03 11:44:43;;;;;;;6.55;1.10;;;19.90;57.60;;;;;;4887168;29;20093;-81
2023/07/03 11:47:16;;;;;;;6.65;1.08;;;20.30;56.60;;;;;;4875452;29;20536;-81
2023/07/03 11:49:58;;;;;;;4.70;1.17;;;20.60;55.60;;;;;;4877824;29;20060;-88
2023/07/03 11:52:32;;;;;;;8.02;1.52;;;20.80;54.80;;;;;;4881210;29;20052;-86
2023/07/03 11:55:30;;;;;;;6.47;1.08;;;20.80;54.90;;;;;;4873289;29;20073;-86
2023/07/03 11:57:59;;;;;;;6.30;1.20;;;20.90;54.80;;;;;;4880277;29;20053;-86
2023/07/03 12:01:25;;;;;;;3.55;0.85;;;20.80;55.10;;;;;;4882120;29;20247;-89
2023/07/03 12:07:22;;;;;;;5.82;1.23;;;21.30;54.60;;;;;;4863961;29;20041;-85
2023/07/03 12:09:52;;;;;;;5.90;1.25;;;21.10;54.70;;;;;;4866666;29;20049;-85
2023/07/03 12:12:27;;;;;;;9.25;1.95;;;20.80;54.90;;;;;;4875269;29;20128;-81
2023/07/03 12:15:02;;;;;;;3.85;0.82;;;20.50;54.90;;;;;;4897615;29;20152;-80
2023/07/03 12:17:33;;;;;;;6.38;1.67;;;20.20;55.70;;;;;;4886022;29;20053;-80
2023/07/03 12:20:10;;;;;;;6.87;1.10;;;20.00;56.70;;;;;;4884605;29;20048;-85
2023/07/03 12:22:45;;;;;;;8.85;2.33;;;19.80;57.40;;;;;;4856485;29;20064;-85
2023/07/03 12:25:28;;;;;;;6.30;1.10;;;19.70;57.90;;;;;;4856585;29;20084;-81
2023/07/03 12:28:09;;;;;;;4.55;0.80;;;19.80;57.90;;;;;;4853893;29;20050;-81
2023/07/03 12:30:37;;;;;;;6.03;1.13;;;20.30;57.70;;;;;;4857495;29;20157;-82
2023/07/03 12:33:06;;;;;;;6.07;0.95;;;21.20;56.40;;;;;;4865023;29;20057;-81
2023/07/03 12:35:37;;;;;;;5.05;0.73;;;21.90;55.70;;;;;;4831928;29;20065;-82
2023/07/03 12:38:09;;;;;;;5.40;1.00;;;21.70;54.70;;;;;;4856560;29;20056;-83
2023/07/03 12:40:44;;;;;;;5.15;0.98;;;21.40;55.20;;;;;;4869328;29;20120;-84
2023/07/03 12:43:17;;;;;;;6.65;1.25;;;21.20;55.00;;;;;;4839604;29;20041;-86
2023/07/03 12:45:52;;;;;;;3.33;1.08;;;21.30;54.80;;;;;;4845317;29;20582;-83
2023/07/03 12:48:22;;;;;;;3.65;0.73;;;21.30;54.10;;;;;;4834637;29;20049;-87
2023/07/03 12:50:55;;;;;;;7.53;1.60;;;21.10;54.30;;;;;;4832041;29;20090;-89
2023/07/03 12:53:24;;;;;;;8.00;1.00;;;20.90;52.00;;;;;;4843890;29;20060;-86
2023/07/03 12:55:56;;;;;;;2.97;0.60;;;20.90;51.70;;;;;;4846693;29;20045;-87
2023/07/03 12:58:25;;;;;;;2.45;0.60;;;21.60;50.90;;;;;;4842407;29;20053;-86
2023/07/03 13:01:06;;;;;;;4.70;0.93;;;22.70;49.00;;;;;;4882888;29;20064;-88
2023/07/03 13:03:41;;;;;;;6.25;0.70;;;23.30;47.70;;;;;;4886977;29;20147;-86
2023/07/03 13:06:21;;;;;;;5.43;0.70;;;24.10;46.90;;;;;;4882062;29;20048;-88
2023/07/03 13:08:49;;;;;;;5.03;0.75;;;24.00;46.20;;;;;;4874724;29;20512;-85
2023/07/03 13:11:30;;;;;;;6.13;0.88;;;23.40;46.90;;;;;;4866352;29;20100;-87
2023/07/03 13:14:18;;;;;;;3.40;0.47;;;23.50;46.50;;;;;;4897684;29;20059;-89
2023/07/03 13:16:48;;;;;;;4.28;0.70;;;24.00;45.70;;;;;;4898584;29;20048;-88
2023/07/03 13:19:34;;;;;;;2.40;0.60;;;23.70;44.60;;;;;;4897084;29;20056;-86
2023/07/03 13:22:09;;;;;;;4.32;1.42;;;23.20;45.40;;;;;;4893874;29;20528;-89
2023/07/03 13:24:44;;;;;;;3.03;0.60;;;22.70;45.50;;;;;;4895271;29;20045;-88
2023/07/03 13:27:24;;;;;;;4.72;0.70;;;22.30;46.00;;;;;;4874982;29;20497;-86
2023/07/03 13:29:57;;;;;;;3.72;0.73;;;22.30;45.80;;;;;;4896700;29;20179;-87
2023/07/03 13:32:25;;;;;;;3.72;0.63;;;22.40;46.00;;;;;;4866202;29;20048;-86
2023/07/03 13:34:58;;;;;;;6.20;0.90;;;22.40;46.30;;;;;;4881361;29;20161;-85
2023/07/03 13:37:29;;;;;;;4.78;0.77;;;23.10;45.90;;;;;;4882135;29;20045;-87